Time;durP1;ratioP1;P1;durP2;ratioP2;P2;SDS_P1;SDS_P2;PMS_P1;PMS_P2;Temp;Humidity;BMP_temperature;BMP_pressure;BME280_temperature;BME280_humidity;BME280_pressure;Samples;Min_cycle;Max_cycle;Signal;HPM_P1;HPM_P2
2020/12/20 00:01:44;;;;;;;5.43;4.40;;;13.10;99.90;;;;;;5073512;28;20182;-67
2020/12/20 00:04:12;;;;;;;4.77;4.13;;;13.00;99.90;;;;;;5073450;28;20222;-67
2020/12/20 00:06:43;;;;;;;5.30;4.80;;;13.00;99.90;;;;;;5073315;28;20437;-66
2020/12/20 00:09:20;;;;;;;8.07;4.30;;;12.90;99.90;;;;;;5073248;28;20436;-67
2020/12/20 00:11:49;;;;;;;8.63;4.80;;;12.80;99.90;;;;;;5073277;28;20459;-67
2020/12/20 00:14:27;;;;;;;5.83;4.90;;;12.80;99.90;;;;;;5073303;28;20676;-67
2020/12/20 00:17:13;;;;;;;4.60;3.63;;;12.80;99.90;;;;;;5073301;28;20424;-67
2020/12/20 00:19:39;;;;;;;5.17;4.67;;;12.70;99.90;;;;;;5072933;28;20922;-67
2020/12/20 00:22:07;;;;;;;4.20;3.80;;;12.70;99.90;;;;;;5073100;28;20420;-67
2020/12/20 00:24:32;;;;;;;4.90;4.13;;;12.70;99.90;;;;;;5072690;28;20230;-67
2020/12/20 00:26:59;;;;;;;5.00;4.50;;;12.70;99.90;;;;;;5072836;28;20427;-67
2020/12/20 00:29:35;;;;;;;6.90;4.40;;;12.70;99.90;;;;;;5073696;28;20468;-67
2020/12/20 00:32:02;;;;;;;5.40;4.20;;;12.60;99.90;;;;;;5080109;28;20411;-66
2020/12/20 00:34:28;;;;;;;5.23;4.73;;;12.60;99.90;;;;;;5087471;28;20481;-66
2020/12/20 00:36:53;;;;;;;5.13;3.97;;;12.60;99.90;;;;;;5072922;28;20474;-66
2020/12/20 00:39:20;;;;;;;4.50;3.83;;;12.60;99.90;;;;;;5072717;28;20721;-66
2020/12/20 00:41:54;;;;;;;4.87;3.83;;;12.60;99.90;;;;;;5072791;28;20182;-65
2020/12/20 00:44:20;;;;;;;7.57;4.43;;;12.50;99.90;;;;;;5072703;28;20472;-67
2020/12/20 00:46:46;;;;;;;5.03;3.90;;;12.50;99.90;;;;;;5072615;28;20428;-65
2020/12/20 00:49:12;;;;;;;5.60;4.10;;;12.50;99.90;;;;;;5071354;28;20482;-65
2020/12/20 00:51:37;;;;;;;4.97;4.10;;;12.60;99.90;;;;;;5072547;28;20482;-65
2020/12/20 00:54:03;;;;;;;4.20;3.40;;;12.50;99.90;;;;;;5072625;28;20637;-65
2020/12/20 00:56:28;;;;;;;8.80;3.70;;;12.50;99.90;;;;;;5072469;28;20640;-66
2020/12/20 00:58:54;;;;;;;6.97;4.30;;;12.50;99.90;;;;;;5072355;28;20654;-66
2020/12/20 01:01:21;;;;;;;4.60;3.87;;;12.50;99.90;;;;;;5072601;28;20516;-65
2020/12/20 01:03:47;;;;;;;5.43;3.83;;;12.50;99.90;;;;;;5071842;28;20532;-66
2020/12/20 01:06:22;;;;;;;6.27;3.90;;;12.50;99.90;;;;;;5072713;28;20571;-66
2020/12/20 01:08:49;;;;;;;4.53;3.80;;;12.50;99.90;;;;;;5072374;28;20174;-65
2020/12/20 01:11:15;;;;;;;8.90;3.67;;;12.50;99.90;;;;;;5072367;28;20798;-65
2020/12/20 01:13:51;;;;;;;4.40;3.60;;;12.60;99.90;;;;;;5072321;28;20451;-65
2020/12/20 01:16:22;;;;;;;4.30;3.67;;;12.60;99.90;;;;;;5072180;28;20432;-65
2020/12/20 01:18:48;;;;;;;8.80;3.90;;;12.60;99.90;;;;;;5072256;28;20839;-65
2020/12/20 01:21:14;;;;;;;5.30;4.20;;;12.60;99.90;;;;;;5072415;28;20448;-66
2020/12/20 01:23:39;;;;;;;5.97;3.67;;;12.50;99.90;;;;;;5071890;28;20224;-66
2020/12/20 01:26:05;;;;;;;6.07;4.10;;;12.50;99.90;;;;;;5072262;28;20417;-65
2020/12/20 01:28:31;;;;;;;5.53;3.87;;;12.50;99.90;;;;;;5072191;28;20170;-65
2020/12/20 01:30:57;;;;;;;4.77;3.87;;;12.40;99.90;;;;;;5072105;28;20432;-65
2020/12/20 01:33:23;;;;;;;8.03;4.10;;;12.40;99.90;;;;;;5072168;28;20428;-66
2020/12/20 01:35:49;;;;;;;9.90;4.43;;;12.40;99.90;;;;;;5072113;28;20514;-65
2020/12/20 01:38:15;;;;;;;4.77;3.93;;;12.30;99.90;;;;;;5072016;28;20185;-65
2020/12/20 01:40:41;;;;;;;4.60;3.97;;;12.40;99.90;;;;;;5072061;28;20425;-66
2020/12/20 01:43:06;;;;;;;6.73;5.20;;;12.30;99.90;;;;;;5071884;28;20641;-66
2020/12/20 01:45:32;;;;;;;4.37;3.43;;;12.40;99.90;;;;;;5072227;28;20231;-66
2020/12/20 01:47:58;;;;;;;5.37;3.60;;;12.40;99.90;;;;;;5072023;28;20534;-66
2020/12/20 01:50:24;;;;;;;5.93;3.90;;;12.30;99.90;;;;;;5071979;28;20508;-66
2020/12/20 01:52:50;;;;;;;3.83;3.43;;;12.30;99.90;;;;;;5072103;28;20798;-66
2020/12/20 01:55:19;;;;;;;5.50;3.70;;;12.30;99.90;;;;;;5071802;28;20479;-66
2020/12/20 01:57:45;;;;;;;6.93;3.60;;;12.30;99.90;;;;;;5072007;28;20432;-66
2020/12/20 02:00:11;;;;;;;4.60;4.00;;;12.30;99.90;;;;;;5071822;28;20460;-66
2020/12/20 02:02:36;;;;;;;12.83;4.07;;;12.30;99.90;;;;;;5071742;28;20459;-66
2020/12/20 02:05:03;;;;;;;6.70;4.00;;;12.30;99.90;;;;;;5071923;28;20210;-65
2020/12/20 02:07:29;;;;;;;3.77;3.30;;;12.30;99.90;;;;;;5071767;28;20625;-66
2020/12/20 06:32:29;;;;;;;7.10;6.13;;;11.80;99.90;;;;;;5025359;23;20565;-66
2020/12/20 06:34:58;;;;;;;8.80;6.30;;;11.80;99.90;;;;;;4938943;29;20431;-66
2020/12/20 06:37:24;;;;;;;11.13;6.00;;;11.70;99.90;;;;;;4938819;29;20540;-66
2020/12/20 06:39:50;;;;;;;8.43;6.20;;;11.70;99.90;;;;;;4938682;29;20937;-66
2020/12/20 06:42:34;;;;;;;7.43;6.37;;;11.70;99.90;;;;;;4938747;29;20433;-66
2020/12/20 06:45:19;;;;;;;7.17;6.47;;;11.70;99.90;;;;;;4938710;29;20222;-66
2020/12/20 06:47:51;;;;;;;9.27;5.60;;;11.60;99.90;;;;;;4938642;29;20443;-67
2020/12/20 06:50:42;;;;;;;12.60;6.93;;;11.60;99.90;;;;;;4938658;29;20438;-66
2020/12/20 06:53:09;;;;;;;10.90;7.73;;;11.60;99.90;;;;;;4938622;29;20455;-66
2020/12/20 06:55:35;;;;;;;11.23;7.63;;;11.60;99.90;;;;;;4974213;23;20495;-66
2020/12/20 06:58:04;;;;;;;9.80;7.20;;;11.60;99.90;;;;;;4957466;28;20516;-67
2020/12/20 07:00:44;;;;;;;9.17;6.70;;;11.70;99.90;;;;;;4957531;28;20514;-66
2020/12/20 07:03:31;;;;;;;9.00;6.90;;;11.70;99.90;;;;;;4957457;28;20445;-65
2020/12/20 07:06:08;;;;;;;9.73;7.10;;;11.70;99.90;;;;;;4957276;28;20441;-66
2020/12/20 07:08:35;;;;;;;8.70;7.47;;;11.80;99.90;;;;;;4957345;28;20472;-66
2020/12/20 07:11:06;;;;;;;8.90;6.47;;;11.70;99.90;;;;;;4956260;28;20929;-65
2020/12/20 07:13:40;;;;;;;15.00;7.67;;;11.80;99.90;;;;;;4956462;28;20438;-66
2020/12/20 07:16:08;;;;;;;9.20;6.83;;;11.80;99.90;;;;;;4956485;28;20430;-66
2020/12/20 07:18:51;;;;;;;8.48;7.20;;;11.80;99.90;;;;;;4956050;28;20471;-66
2020/12/20 07:21:19;;;;;;;7.87;7.07;;;11.80;99.90;;;;;;4956349;28;20210;-65
2020/12/20 07:23:47;;;;;;;8.70;7.20;;;11.80;99.90;;;;;;4956357;29;20470;-66
2020/12/20 07:26:13;;;;;;;8.50;6.70;;;11.80;99.90;;;;;;4956196;28;20541;-66
2020/12/20 07:28:39;;;;;;;9.17;7.00;;;11.80;99.90;;;;;;4956157;28;20512;-66
2020/12/20 07:31:11;;;;;;;11.00;9.13;;;11.80;99.90;;;;;;4956086;29;20533;-66
2020/12/20 07:33:37;;;;;;;8.20;7.27;;;11.90;99.90;;;;;;4956237;28;20182;-67
2020/12/20 07:36:04;;;;;;;10.87;7.97;;;11.90;99.90;;;;;;4956131;29;20422;-66
2020/12/20 07:38:29;;;;;;;7.33;6.40;;;11.90;99.90;;;;;;4955915;28;20425;-65
2020/12/20 07:40:55;;;;;;;8.20;7.40;;;11.90;99.90;;;;;;4955997;29;20944;-65
2020/12/20 07:43:20;;;;;;;8.13;6.77;;;11.90;99.90;;;;;;4958099;28;20178;-66
2020/12/20 07:45:59;;;;;;;8.87;7.53;;;11.90;99.90;;;;;;4970520;28;20180;-66
2020/12/20 07:48:25;;;;;;;8.17;6.53;;;11.90;99.90;;;;;;4971765;28;20182;-65
2020/12/20 07:50:52;;;;;;;11.60;7.50;;;11.90;99.90;;;;;;4964417;28;20437;-71
2020/12/20 07:53:18;;;;;;;7.93;7.13;;;12.10;99.90;;;;;;4956222;28;20438;-65
2020/12/20 07:55:48;;;;;;;10.43;7.10;;;12.00;99.90;;;;;;4972046;28;20477;-65
2020/12/20 08:01:37;;;;;;;7.00;6.30;;;11.90;99.90;;;;;;4975982;28;20891;-65
2020/12/20 08:04:05;;;;;;;8.33;6.70;;;11.90;99.90;;;;;;4976058;28;20479;-66
2020/12/20 08:06:37;;;;;;;9.23;6.87;;;11.90;99.90;;;;;;4976154;28;20425;-66
2020/12/20 08:09:06;;;;;;;8.27;6.47;;;11.90;99.90;;;;;;4975040;28;20432;-66
2020/12/20 08:11:32;;;;;;;7.67;6.13;;;11.90;99.90;;;;;;4976110;28;20428;-66
2020/12/20 08:14:03;;;;;;;7.17;6.47;;;11.90;99.90;;;;;;4975757;28;20480;-66
2020/12/20 08:16:31;;;;;;;9.63;7.53;;;11.90;99.90;;;;;;4975702;28;20421;-66
2020/12/20 08:19:04;;;;;;;7.43;6.67;;;11.90;99.90;;;;;;4975941;28;20453;-66
2020/12/20 08:21:48;;;;;;;10.07;7.70;;;12.00;99.90;;;;;;4975923;28;20428;-65
2020/12/20 08:24:14;;;;;;;9.40;6.30;;;12.00;99.90;;;;;;4975740;28;20882;-66
2020/12/20 08:26:41;;;;;;;7.10;6.30;;;11.90;99.90;;;;;;4975795;28;20441;-66
2020/12/20 08:29:07;;;;;;;10.20;7.77;;;12.00;99.90;;;;;;4975797;28;20472;-67
2020/12/20 08:31:34;;;;;;;8.50;6.80;;;12.00;99.90;;;;;;4975609;28;20441;-66
2020/12/20 08:34:00;;;;;;;7.23;5.90;;;12.00;99.90;;;;;;4975635;28;20577;-66
2020/12/20 08:36:27;;;;;;;11.00;8.05;;;11.90;99.90;;;;;;4975441;28;20889;-67
2020/12/20 08:38:54;;;;;;;8.40;7.60;;;12.00;99.90;;;;;;4975539;28;20185;-67
2020/12/20 08:41:29;;;;;;;9.23;7.27;;;12.00;99.90;;;;;;4975551;28;20421;-67
2020/12/20 08:44:12;;;;;;;10.73;6.30;;;12.10;99.90;;;;;;4975392;28;20469;-67
2020/12/20 08:46:41;;;;;;;9.23;6.87;;;12.00;99.90;;;;;;4975147;28;20528;-69
2020/12/20 08:49:21;;;;;;;11.00;7.40;;;12.00;99.90;;;;;;4975389;28;20444;-71
2020/12/20 08:51:49;;;;;;;10.80;7.50;;;12.10;99.90;;;;;;4975357;28;20424;-72
2020/12/20 08:54:28;;;;;;;8.73;6.37;;;12.00;99.90;;;;;;4974965;28;20564;-71
2020/12/20 08:57:04;;;;;;;7.73;6.80;;;12.00;99.90;;;;;;4975368;28;20927;-71
2020/12/20 08:59:32;;;;;;;12.30;7.27;;;12.00;99.90;;;;;;4975281;28;20959;-71
2020/12/20 09:01:59;;;;;;;7.93;6.60;;;12.10;99.90;;;;;;4975242;28;20429;-72
2020/12/20 09:04:48;;;;;;;10.73;7.30;;;12.10;99.90;;;;;;4975136;28;20488;-70
2020/12/20 09:10:36;;;;;;;11.33;6.90;;;12.00;99.90;;;;;;4975169;28;20667;-71
2020/12/20 09:13:04;;;;;;;12.70;7.70;;;11.90;99.90;;;;;;4975055;28;20425;-70
2020/12/20 09:15:29;;;;;;;9.07;7.37;;;12.00;99.90;;;;;;4975074;28;20421;-69
2020/12/20 09:17:57;;;;;;;10.50;7.60;;;12.00;99.90;;;;;;4974729;28;20476;-69
2020/12/20 09:20:27;;;;;;;8.20;7.07;;;12.00;99.90;;;;;;4974863;28;20240;-70
2020/12/20 09:22:57;;;;;;;9.83;7.73;;;12.00;99.90;;;;;;4974985;28;20572;-71
2020/12/20 09:25:37;;;;;;;8.43;7.47;;;12.00;99.90;;;;;;4975371;28;20773;-72
2020/12/20 09:28:11;;;;;;;7.70;6.90;;;12.10;99.90;;;;;;4974671;28;20401;-71
2020/12/20 09:30:38;;;;;;;8.97;8.07;;;12.10;99.90;;;;;;4974934;28;20947;-72
2020/12/20 09:33:16;;;;;;;10.13;8.03;;;12.10;99.90;;;;;;4974608;28;20421;-71
2020/12/20 09:36:20;;;;;;;7.83;6.80;;;12.00;99.90;;;;;;4974894;28;20433;-72
2020/12/20 09:38:51;;;;;;;9.53;7.23;;;12.10;99.90;;;;;;4968297;28;20425;-71
2020/12/20 09:41:18;;;;;;;8.87;7.17;;;12.10;99.90;;;;;;4974843;28;20501;-71
2020/12/20 09:43:45;;;;;;;10.30;7.50;;;12.10;99.90;;;;;;4974757;28;20592;-71
2020/12/20 09:46:18;;;;;;;8.77;7.83;;;12.10;99.90;;;;;;4974783;28;20468;-71
2020/12/20 09:48:44;;;;;;;8.97;7.50;;;12.00;99.90;;;;;;4974997;28;20405;-71
2020/12/20 09:51:09;;;;;;;7.90;6.77;;;12.00;99.90;;;;;;4974427;28;20511;-72
2020/12/20 09:53:35;;;;;;;10.20;7.17;;;12.10;99.90;;;;;;4974127;28;20316;-71
2020/12/20 09:56:01;;;;;;;7.87;6.50;;;12.10;99.90;;;;;;4974233;28;20205;-72
2020/12/20 09:58:28;;;;;;;12.30;7.67;;;12.20;99.90;;;;;;4974282;28;20217;-72
2020/12/20 10:00:53;;;;;;;10.33;7.17;;;12.20;99.90;;;;;;4974172;28;20512;-73
2020/12/20 10:03:19;;;;;;;13.67;6.20;;;12.20;99.90;;;;;;4974091;28;20480;-72
2020/12/20 10:05:45;;;;;;;8.77;6.10;;;12.20;99.90;;;;;;4974231;28;20174;-73
2020/12/20 10:08:14;;;;;;;7.23;6.13;;;12.20;99.90;;;;;;4974059;28;20182;-72
2020/12/20 10:10:39;;;;;;;12.73;5.03;;;12.20;99.90;;;;;;4974482;28;20507;-72
2020/12/20 10:13:05;;;;;;;8.70;5.47;;;12.30;99.90;;;;;;4974539;28;20945;-72
2020/12/20 10:15:31;;;;;;;7.80;5.90;;;12.40;99.90;;;;;;4974558;28;20201;-73
2020/12/20 10:18:01;;;;;;;8.80;5.17;;;12.50;99.90;;;;;;4974508;28;20177;-72
2020/12/20 10:20:26;;;;;;;7.63;5.90;;;12.60;99.90;;;;;;4974407;28;20437;-72
2020/12/20 10:22:52;;;;;;;9.17;5.90;;;12.50;99.90;;;;;;4974429;28;20452;-72
2020/12/20 10:28:39;;;;;;;8.47;5.00;;;12.60;99.90;;;;;;4974017;28;20164;-73
2020/12/20 10:31:05;;;;;;;10.30;5.43;;;12.60;99.90;;;;;;4974679;28;20425;-73
2020/12/20 10:33:30;;;;;;;6.50;4.23;;;12.60;99.90;;;;;;4977860;28;20189;-73
2020/12/20 10:35:56;;;;;;;8.10;5.30;;;12.70;99.90;;;;;;4977770;28;20170;-73
2020/12/20 10:38:22;;;;;;;9.70;4.87;;;12.80;99.90;;;;;;4977796;28;20186;-73
2020/12/20 10:44:09;;;;;;;6.40;4.17;;;12.80;99.90;;;;;;4977396;28;20625;-72
2020/12/20 10:49:57;;;;;;;5.20;3.80;;;12.90;99.90;;;;;;4977178;28;20212;-71
2020/12/20 10:52:22;;;;;;;4.90;4.40;;;13.10;99.90;;;;;;4977280;28;20429;-73
2020/12/20 10:54:48;;;;;;;10.53;4.60;;;13.10;99.90;;;;;;4976914;28;20225;-73
2020/12/20 10:57:13;;;;;;;8.50;3.87;;;13.00;99.90;;;;;;4976911;28;20217;-73
2020/12/20 10:59:39;;;;;;;9.80;4.87;;;13.10;99.90;;;;;;4975755;28;20231;-72
2020/12/20 11:02:05;;;;;;;6.90;3.83;;;13.10;99.90;;;;;;4977127;28;20185;-73
2020/12/20 11:04:30;;;;;;;6.33;4.17;;;13.10;99.90;;;;;;4976748;28;20206;-74
2020/12/20 11:07:00;;;;;;;5.50;3.63;;;13.10;99.90;;;;;;4976885;28;20178;-72
2020/12/20 11:12:48;;;;;;;6.07;4.27;;;13.10;99.90;;;;;;4976754;28;20416;-72
2020/12/20 11:15:13;;;;;;;10.17;4.30;;;13.10;99.90;;;;;;4976939;28;20508;-72
2020/12/20 11:17:39;;;;;;;7.27;4.43;;;13.10;99.90;;;;;;4976996;28;20174;-72
2020/12/20 11:20:05;;;;;;;5.57;3.90;;;13.10;99.90;;;;;;4976864;28;20537;-72
2020/12/20 11:22:30;;;;;;;9.60;4.80;;;13.00;99.90;;;;;;4976818;28;20537;-72
2020/12/20 11:28:17;;;;;;;7.70;4.53;;;13.00;99.90;;;;;;4976452;28;20169;-72
2020/12/20 11:30:46;;;;;;;5.77;5.10;;;13.00;99.90;;;;;;4976685;28;20422;-70
2020/12/20 11:33:12;;;;;;;5.33;4.07;;;12.90;99.90;;;;;;4976672;28;20186;-72
2020/12/20 11:35:37;;;;;;;10.60;4.30;;;12.90;99.90;;;;;;4976547;28;20786;-73
2020/12/20 11:38:03;;;;;;;10.70;4.90;;;12.80;99.90;;;;;;4976320;28;20178;-72
2020/12/20 11:40:28;;;;;;;6.80;3.67;;;12.80;99.90;;;;;;4976079;28;20181;-72
2020/12/20 11:42:54;;;;;;;10.93;4.90;;;12.90;99.90;;;;;;4976404;28;20178;-72
2020/12/20 11:45:19;;;;;;;9.70;4.00;;;12.80;99.90;;;;;;4976224;28;20212;-72
2020/12/20 11:47:45;;;;;;;7.07;4.50;;;12.90;99.90;;;;;;4976316;28;20174;-72
2020/12/20 11:50:13;;;;;;;8.17;5.37;;;12.90;99.90;;;;;;4976281;28;20209;-72
2020/12/20 11:56:04;;;;;;;9.00;4.57;;;12.80;99.90;;;;;;4964934;28;21064;-72
2020/12/20 12:01:52;;;;;;;6.80;4.60;;;12.80;99.90;;;;;;4975854;28;20436;-72
2020/12/20 12:04:17;;;;;;;9.77;4.60;;;12.80;99.90;;;;;;4975949;28;20473;-72
2020/12/20 12:06:46;;;;;;;8.97;4.63;;;12.70;99.90;;;;;;4975541;28;20649;-71
2020/12/20 12:09:12;;;;;;;6.63;3.80;;;12.80;99.90;;;;;;4975925;28;20209;-72
2020/12/20 12:11:37;;;;;;;7.20;4.73;;;12.80;99.90;;;;;;4975865;28;20425;-72
2020/12/20 12:14:03;;;;;;;9.53;5.30;;;12.90;99.90;;;;;;4975834;28;20581;-73
2020/12/20 12:16:28;;;;;;;8.70;3.97;;;12.80;99.90;;;;;;4975804;28;20178;-73
2020/12/20 12:18:54;;;;;;;8.60;4.23;;;12.80;99.90;;;;;;4974481;28;20205;-74
2020/12/20 12:24:42;;;;;;;7.57;4.10;;;12.80;99.90;;;;;;4975321;28;20209;-73
2020/12/20 12:30:29;;;;;;;8.40;4.23;;;12.90;99.90;;;;;;4975314;28;20197;-71
2020/12/20 12:32:54;;;;;;;5.00;3.43;;;12.90;99.90;;;;;;4975480;28;20499;-72
2020/12/20 12:35:22;;;;;;;10.87;5.10;;;12.90;99.90;;;;;;4975452;28;20232;-71
2020/12/20 12:37:48;;;;;;;6.27;4.60;;;12.90;99.90;;;;;;4975316;28;20261;-69
2020/12/20 12:40:14;;;;;;;9.23;5.07;;;12.90;99.90;;;;;;4975367;28;20588;-73
2020/12/20 12:42:40;;;;;;;7.60;4.10;;;13.00;99.90;;;;;;4975399;28;20432;-73
2020/12/20 12:45:06;;;;;;;7.03;4.60;;;13.00;99.90;;;;;;4975155;28;20480;-72
2020/12/20 12:47:32;;;;;;;9.20;4.33;;;13.10;99.90;;;;;;4975245;28;20421;-72
2020/12/20 12:49:57;;;;;;;7.80;4.53;;;13.00;99.90;;;;;;4975181;28;20204;-71
2020/12/20 12:52:23;;;;;;;8.30;4.67;;;13.10;99.90;;;;;;4975104;28;20184;-71
2020/12/20 12:54:48;;;;;;;8.70;4.50;;;13.10;99.90;;;;;;4974261;28;20629;-70
2020/12/20 12:57:14;;;;;;;4.50;3.80;;;12.90;99.90;;;;;;4974946;28;20177;-71
2020/12/20 12:59:40;;;;;;;9.03;4.53;;;13.00;99.90;;;;;;4975132;28;20182;-71
2020/12/20 13:02:06;;;;;;;5.90;4.37;;;13.00;99.90;;;;;;4975007;28;20188;-71
2020/12/20 13:07:53;;;;;;;9.30;4.40;;;13.00;99.90;;;;;;4974502;28;20216;-70
2020/12/20 13:10:19;;;;;;;8.27;3.90;;;13.00;99.90;;;;;;4974637;28;20776;-70
2020/12/20 13:16:08;;;;;;;5.73;4.20;;;13.00;99.90;;;;;;4974564;28;20165;-69
2020/12/20 13:21:57;;;;;;;8.10;4.00;;;13.00;99.90;;;;;;4974470;28;20480;-72
2020/12/20 13:24:23;;;;;;;6.60;3.97;;;12.90;99.90;;;;;;4974654;28;20475;-75
2020/12/20 13:26:48;;;;;;;4.93;3.57;;;12.90;99.90;;;;;;4974705;28;20987;-72
2020/12/20 13:29:14;;;;;;;7.67;4.43;;;12.80;99.90;;;;;;4974549;28;20265;-71
2020/12/20 13:31:39;;;;;;;8.23;4.40;;;12.70;99.90;;;;;;4974370;28;20170;-71
2020/12/20 13:34:05;;;;;;;7.43;3.73;;;12.70;99.90;;;;;;4974575;28;20185;-71
2020/12/20 13:36:31;;;;;;;13.73;4.93;;;12.80;99.90;;;;;;4974639;28;20733;-71
2020/12/20 13:38:57;;;;;;;6.37;4.33;;;12.80;99.90;;;;;;4974666;28;20178;-73
2020/12/20 13:41:23;;;;;;;8.50;5.30;;;12.80;99.90;;;;;;4974688;28;20322;-70
2020/12/20 13:43:49;;;;;;;9.37;3.63;;;12.70;99.90;;;;;;4974547;28;20508;-70
2020/12/20 13:49:36;;;;;;;8.10;4.00;;;12.80;99.90;;;;;;4974417;28;20173;-67
2020/12/20 13:55:23;;;;;;;8.00;3.90;;;12.80;99.90;;;;;;4974100;28;20577;-69
2020/12/20 13:57:49;;;;;;;4.60;3.33;;;12.80;99.90;;;;;;4974467;28;20425;-69
2020/12/20 14:03:36;;;;;;;15.70;4.30;;;12.80;99.90;;;;;;4974016;28;20626;-70
2020/12/20 14:06:02;;;;;;;8.87;3.90;;;12.80;99.90;;;;;;4974561;28;20425;-70
2020/12/20 14:08:27;;;;;;;6.87;4.30;;;12.80;99.90;;;;;;4978193;28;20260;-69
2020/12/20 14:10:53;;;;;;;10.10;4.37;;;12.80;99.90;;;;;;4978127;28;20257;-70
2020/12/20 14:13:18;;;;;;;10.03;5.00;;;12.80;99.90;;;;;;4978182;28;20174;-70
2020/12/20 14:15:44;;;;;;;5.93;3.60;;;12.80;99.90;;;;;;4977995;28;20583;-69
2020/12/20 14:18:09;;;;;;;9.23;4.17;;;12.80;99.90;;;;;;4978424;28;20176;-69
2020/12/20 14:20:38;;;;;;;6.80;4.37;;;12.80;99.90;;;;;;4976990;28;20532;-70
2020/12/20 14:23:04;;;;;;;9.73;4.77;;;12.70;99.90;;;;;;4976218;28;20198;-70
2020/12/20 14:25:29;;;;;;;11.20;5.40;;;12.80;99.90;;;;;;4977748;28;20461;-70
2020/12/20 14:27:55;;;;;;;10.20;3.97;;;12.80;99.90;;;;;;4977827;28;20660;-70
2020/12/20 14:30:21;;;;;;;13.30;4.60;;;12.80;99.90;;;;;;4977771;28;20568;-69
2020/12/20 14:36:09;;;;;;;10.90;3.93;;;12.80;99.90;;;;;;4977488;28;20245;-69
2020/12/20 14:41:57;;;;;;;6.80;4.57;;;12.80;99.90;;;;;;4977192;28;20452;-70
2020/12/20 14:47:44;;;;;;;7.97;4.00;;;12.80;99.90;;;;;;4977221;28;20409;-70
2020/12/20 14:50:10;;;;;;;7.50;4.10;;;12.80;99.90;;;;;;4977343;28;20421;-70
2020/12/20 14:55:57;;;;;;;6.93;3.80;;;12.80;99.90;;;;;;4976896;28;20229;-68
2020/12/20 14:58:23;;;;;;;5.77;3.83;;;12.80;99.90;;;;;;4976952;28;20433;-68
2020/12/20 15:00:49;;;;;;;11.07;3.90;;;12.80;99.90;;;;;;4976879;28;20235;-68
2020/12/20 15:03:14;;;;;;;9.73;4.10;;;12.80;99.90;;;;;;4977167;28;20177;-69
2020/12/20 15:05:40;;;;;;;10.20;4.73;;;12.80;99.90;;;;;;4977039;28;20672;-69
2020/12/20 15:08:05;;;;;;;9.40;4.40;;;12.80;99.90;;;;;;4977081;28;20580;-68
2020/12/20 15:10:31;;;;;;;9.20;4.10;;;12.70;99.90;;;;;;4976613;28;20629;-68
2020/12/20 15:16:18;;;;;;;7.10;4.93;;;12.60;99.90;;;;;;4976929;28;20165;-68
2020/12/20 15:22:07;;;;;;;7.77;4.30;;;12.60;99.90;;;;;;4976735;28;20579;-68
2020/12/20 15:24:33;;;;;;;9.00;4.00;;;12.60;99.90;;;;;;4976661;28;20477;-69
2020/12/20 15:26:59;;;;;;;8.60;5.20;;;12.60;99.90;;;;;;4976691;28;20453;-69
2020/12/20 15:29:24;;;;;;;7.80;4.60;;;12.50;99.90;;;;;;4976403;28;20461;-68
2020/12/20 15:31:50;;;;;;;5.93;4.80;;;12.50;99.90;;;;;;4976654;28;20229;-68
2020/12/20 15:34:15;;;;;;;11.13;5.87;;;12.50;99.90;;;;;;4976595;28;20217;-68
2020/12/20 15:36:41;;;;;;;10.53;5.20;;;12.50;99.90;;;;;;4976246;28;20536;-68
2020/12/20 15:39:06;;;;;;;10.03;5.43;;;12.50;99.90;;;;;;4976468;28;20177;-68
2020/12/20 15:41:32;;;;;;;14.07;5.23;;;12.40;99.90;;;;;;4976537;28;20170;-68
2020/12/20 15:43:58;;;;;;;8.43;5.57;;;12.40;99.90;;;;;;4976078;28;20664;-68
2020/12/20 15:46:23;;;;;;;10.20;5.13;;;12.40;99.90;;;;;;4976313;28;20268;-68
2020/12/20 15:48:49;;;;;;;7.00;4.40;;;12.40;99.90;;;;;;4976036;28;20265;-68
2020/12/20 15:51:21;;;;;;;13.63;5.60;;;12.40;99.90;;;;;;4974819;28;20442;-68
2020/12/20 15:53:48;;;;;;;9.23;6.10;;;12.40;99.90;;;;;;4976208;28;20800;-68
2020/12/20 15:56:14;;;;;;;11.00;5.20;;;12.40;99.90;;;;;;4975726;28;21019;-68
2020/12/20 15:58:40;;;;;;;8.57;5.30;;;12.40;99.90;;;;;;4975845;28;20429;-68
2020/12/20 16:01:05;;;;;;;13.40;5.17;;;12.40;99.90;;;;;;4975844;28;20437;-68
2020/12/20 16:03:31;;;;;;;12.17;4.97;;;12.40;99.90;;;;;;4975539;28;20174;-69
2020/12/20 16:05:56;;;;;;;19.00;5.90;;;12.40;99.90;;;;;;4975563;28;20181;-68
2020/12/20 16:11:44;;;;;;;18.33;9.17;;;12.30;99.90;;;;;;4975930;28;20515;-68
2020/12/20 16:14:09;;;;;;;12.90;5.67;;;12.30;99.90;;;;;;4974387;28;20429;-68
2020/12/20 16:16:35;;;;;;;14.50;7.97;;;12.20;99.90;;;;;;4975504;28;20581;-68
2020/12/20 16:19:00;;;;;;;11.63;6.43;;;12.20;99.90;;;;;;4975774;28;20254;-68
2020/12/20 16:21:27;;;;;;;10.13;7.13;;;12.20;99.90;;;;;;4975795;28;20261;-69
2020/12/20 16:23:53;;;;;;;10.77;5.80;;;12.20;99.90;;;;;;4975574;28;20206;-68
2020/12/20 16:26:23;;;;;;;9.20;5.40;;;12.20;99.90;;;;;;4975992;28;20433;-68
2020/12/20 16:28:49;;;;;;;7.10;4.77;;;12.10;99.90;;;;;;4975287;28;20766;-69
2020/12/20 16:31:15;;;;;;;10.77;5.97;;;12.10;99.90;;;;;;4976306;28;20787;-68
2020/12/20 16:33:41;;;;;;;10.90;5.30;;;12.10;99.90;;;;;;4975386;28;20504;-68
2020/12/20 16:36:20;;;;;;;7.80;4.00;;;12.10;99.90;;;;;;4975450;28;20528;-67
2020/12/20 16:38:47;;;;;;;8.00;4.53;;;12.00;99.90;;;;;;4975210;28;20166;-68
2020/12/20 16:41:16;;;;;;;12.97;5.83;;;12.00;99.90;;;;;;4975392;28;20431;-69
2020/12/20 16:43:42;;;;;;;10.30;5.00;;;11.90;99.90;;;;;;4975362;28;20428;-68
2020/12/20 16:49:30;;;;;;;11.77;5.27;;;11.90;99.90;;;;;;4975266;28;20173;-68
2020/12/20 16:51:56;;;;;;;14.40;5.83;;;11.90;99.90;;;;;;4975228;28;20909;-68
2020/12/20 16:54:22;;;;;;;15.20;6.60;;;11.90;99.90;;;;;;4974921;28;20182;-68
2020/12/20 16:56:47;;;;;;;14.93;6.77;;;11.90;99.90;;;;;;4974775;28;20240;-68
2020/12/20 16:59:14;;;;;;;7.83;5.63;;;11.80;99.90;;;;;;4975148;28;20425;-68
2020/12/20 17:01:40;;;;;;;10.97;5.77;;;11.80;99.90;;;;;;4974816;28;20192;-68
2020/12/20 17:04:05;;;;;;;11.30;6.20;;;11.80;99.90;;;;;;4974958;28;20461;-71
2020/12/20 17:06:31;;;;;;;16.43;5.80;;;11.80;99.90;;;;;;4975129;28;20260;-70
2020/12/20 17:08:56;;;;;;;10.70;5.37;;;11.80;99.90;;;;;;4974744;28;20181;-70
2020/12/20 17:11:23;;;;;;;8.77;5.73;;;11.80;99.90;;;;;;4975099;28;20244;-70
2020/12/20 17:13:49;;;;;;;7.87;5.80;;;11.80;99.90;;;;;;4974983;28;20174;-69
2020/12/20 17:16:17;;;;;;;8.23;5.40;;;11.80;99.90;;;;;;4974639;28;20909;-70
2020/12/20 17:18:44;;;;;;;6.37;5.47;;;11.80;99.90;;;;;;4974916;28;20448;-70
2020/12/20 17:21:15;;;;;;;10.47;5.00;;;11.80;99.90;;;;;;4974459;28;20494;-68
2020/12/20 17:23:40;;;;;;;8.97;6.40;;;11.80;99.90;;;;;;4974699;28;20433;-68
2020/12/20 17:26:06;;;;;;;12.20;5.87;;;11.70;99.90;;;;;;4974639;28;20508;-68
2020/12/20 17:31:53;;;;;;;10.60;5.20;;;11.70;99.90;;;;;;4974551;28;20531;-69
2020/12/20 17:37:45;;;;;;;14.13;6.50;;;11.70;99.90;;;;;;4974424;28;20208;-69
2020/12/20 17:40:11;;;;;;;12.50;6.30;;;11.60;99.90;;;;;;4975329;28;20849;-69
2020/12/20 17:42:43;;;;;;;13.00;6.17;;;11.60;99.90;;;;;;4978852;28;20512;-69
2020/12/20 17:48:31;;;;;;;12.53;6.53;;;11.60;99.90;;;;;;4978275;28;20779;-68
2020/12/20 17:50:56;;;;;;;8.47;5.03;;;11.60;99.90;;;;;;4978176;28;20421;-69
2020/12/20 17:53:22;;;;;;;11.23;5.97;;;11.60;99.90;;;;;;4978119;28;20186;-69
2020/12/20 17:55:47;;;;;;;23.83;6.40;;;11.60;99.90;;;;;;4978145;28;20221;-68
2020/12/20 17:58:13;;;;;;;13.53;6.10;;;11.60;99.90;;;;;;4978346;28;20238;-69
2020/12/20 18:00:39;;;;;;;15.43;7.77;;;11.60;99.90;;;;;;4978237;28;20178;-70
2020/12/20 18:03:05;;;;;;;8.43;5.33;;;11.60;99.90;;;;;;4978134;28;20932;-69
2020/12/20 18:05:31;;;;;;;15.00;6.00;;;11.60;99.90;;;;;;4977789;28;20205;-68
2020/12/20 18:07:57;;;;;;;12.40;6.47;;;11.70;99.90;;;;;;4977937;28;20504;-68
2020/12/20 18:13:45;;;;;;;10.07;4.70;;;11.70;99.90;;;;;;4977840;28;20680;-70
2020/12/20 18:16:11;;;;;;;9.47;4.60;;;11.70;99.90;;;;;;4977996;28;20428;-70
2020/12/20 18:18:37;;;;;;;6.73;4.63;;;11.60;99.90;;;;;;4977398;28;20429;-75
2020/12/20 18:21:08;;;;;;;10.07;5.57;;;11.60;99.90;;;;;;4977910;28;20178;-73
2020/12/20 18:26:55;;;;;;;10.27;5.50;;;11.60;99.90;;;;;;4977680;28;20509;-74
2020/12/20 18:29:21;;;;;;;11.27;4.47;;;11.60;99.90;;;;;;4977947;28;20433;-67
2020/12/20 18:31:46;;;;;;;10.90;5.40;;;11.60;99.90;;;;;;4977807;28;20277;-68
2020/12/20 18:37:34;;;;;;;7.60;4.50;;;11.60;99.90;;;;;;4977579;28;20162;-68
2020/12/20 18:43:22;;;;;;;6.57;4.00;;;11.60;99.90;;;;;;4977438;28;20686;-67
2020/12/20 18:45:48;;;;;;;7.80;3.97;;;11.60;99.90;;;;;;4977461;28;20544;-67
2020/12/20 18:48:13;;;;;;;15.30;4.83;;;11.70;99.90;;;;;;4977579;28;20633;-67
2020/12/20 18:50:39;;;;;;;10.10;4.53;;;11.70;99.90;;;;;;4977442;28;20209;-68
2020/12/20 18:53:06;;;;;;;5.40;3.93;;;11.70;99.90;;;;;;4976745;28;20177;-70
2020/12/20 18:55:31;;;;;;;15.63;6.27;;;11.70;99.90;;;;;;4977118;28;20272;-68